Terminal Aerodrome Forecast
Issued by NWS Charleston, SC

Home | Current Version | Previous Version | Text Only | Print | Product List | Glossary On
Versions: 1 2 3 4 5 6 7 8 9 10 11 12 13 14 15 16 17 18 19 20 21 22 23 24
580
FTUS42 KCHS 242357 CCA
TAFSAV
TAF COR
KSAV 242357Z 2500/2524 VRB03KT P6SM -RA FEW025 SCT080 OVC150
      TEMPO 2500/2501 3SM RA BR
     FM250700 00000KT 6SM BR SCT005 BKN015
     FM251600 13008KT P6SM VCSH SCT025 BKN040
     FM252100 14011KT P6SM SCT040 BKN150=

USA.gov is the U.S. government's official web portal to all federal, state and local government web resources and services.